Time;durP1;ratioP1;P1;durP2;ratioP2;P2;SDS_P1;SDS_P2;PMS_P1;PMS_P2;Temp;Humidity;BMP_temperature;BMP_pressure;BME280_temperature;BME280_humidity;BME280_pressure;Samples;Min_cycle;Max_cycle;Signal;HPM_P1;HPM_P2
2021/10/04 00:01:14;;;;;;;16.90;10.03;;;7.40;99.90;;;;;;4123582;28;20553;-67
2021/10/04 00:03:15;;;;;;;19.27;10.67;;;7.40;99.90;;;;;;4124543;28;20076;-65
2021/10/04 00:05:16;;;;;;;19.03;9.77;;;7.40;99.90;;;;;;4124258;28;20499;-63
2021/10/04 00:07:18;;;;;;;20.47;10.27;;;7.40;99.90;;;;;;4124813;28;20042;-70
2021/10/04 00:09:19;;;;;;;17.47;10.37;;;7.40;99.90;;;;;;4124524;28;20030;-65
2021/10/04 00:11:20;;;;;;;18.50;9.80;;;7.30;99.90;;;;;;4124439;28;20108;-71
2021/10/04 00:13:21;;;;;;;19.43;10.37;;;7.30;99.90;;;;;;4124175;28;20081;-64
2021/10/04 00:15:24;;;;;;;16.67;9.67;;;7.30;99.90;;;;;;4123704;28;20089;-73
2021/10/04 00:17:25;;;;;;;16.57;9.27;;;7.30;99.90;;;;;;4124132;28;20038;-69
2021/10/04 00:19:26;;;;;;;18.03;10.03;;;7.20;99.90;;;;;;4124477;28;20093;-68
2021/10/04 00:21:28;;;;;;;14.97;9.63;;;7.20;99.90;;;;;;4124406;28;20030;-67
2021/10/04 00:23:30;;;;;;;15.00;8.53;;;7.10;99.90;;;;;;4123778;28;20042;-67
2021/10/04 00:25:31;;;;;;;17.03;9.17;;;7.10;99.90;;;;;;4123800;28;20105;-74
2021/10/04 00:27:32;;;;;;;14.27;8.63;;;7.10;99.90;;;;;;4123858;28;20502;-68
2021/10/04 00:29:33;;;;;;;14.83;9.00;;;7.00;99.90;;;;;;4123705;28;20034;-70
2021/10/04 00:31:35;;;;;;;15.13;8.93;;;7.00;99.90;;;;;;4123388;28;20022;-70
2021/10/04 00:33:36;;;;;;;17.07;8.77;;;7.00;99.90;;;;;;4123938;28;20104;-67
2021/10/04 00:35:37;;;;;;;22.20;9.90;;;7.00;99.90;;;;;;4123444;28;20058;-67
2021/10/04 00:37:38;;;;;;;15.60;8.93;;;6.90;99.90;;;;;;4123848;28;20030;-64
2021/10/04 00:39:39;;;;;;;19.97;10.77;;;6.90;99.90;;;;;;4123981;28;20086;-70
2021/10/04 00:41:42;;;;;;;16.87;9.43;;;6.80;99.90;;;;;;4124154;28;20565;-71
2021/10/04 00:43:43;;;;;;;18.43;9.67;;;6.70;99.90;;;;;;4123319;28;20092;-67
2021/10/04 00:45:44;;;;;;;17.10;9.87;;;6.60;99.90;;;;;;4123428;28;20914;-73
2021/10/04 00:47:45;;;;;;;20.43;10.20;;;6.60;99.90;;;;;;4123861;28;20093;-69
2021/10/04 00:49:47;;;;;;;14.47;9.03;;;6.50;99.90;;;;;;4123445;28;20042;-63
2021/10/04 00:51:48;;;;;;;15.60;8.97;;;6.50;99.90;;;;;;4123558;28;20089;-63
2021/10/04 00:53:51;;;;;;;16.70;9.77;;;6.50;99.90;;;;;;4123621;28;20026;-67
2021/10/04 00:55:52;;;;;;;16.73;8.73;;;6.50;99.90;;;;;;4123722;28;20101;-66
2021/10/04 00:57:56;;;;;;;17.80;9.90;;;6.60;99.90;;;;;;4123297;28;20038;-65
2021/10/04 00:59:58;;;;;;;15.33;9.07;;;6.60;99.90;;;;;;4123516;28;20451;-74
2021/10/04 01:01:59;;;;;;;14.10;8.63;;;6.50;99.90;;;;;;4123262;28;20034;-71
2021/10/04 01:04:01;;;;;;;14.73;9.03;;;6.50;99.90;;;;;;4123807;28;20038;-70
2021/10/04 01:06:03;;;;;;;16.00;9.10;;;6.50;99.90;;;;;;4122997;28;20092;-70
2021/10/04 01:08:04;;;;;;;16.83;9.13;;;6.60;99.90;;;;;;4123626;28;20065;-73
2021/10/04 01:10:09;;;;;;;17.93;8.33;;;6.50;99.90;;;;;;4123022;28;20031;-69
2021/10/04 01:12:10;;;;;;;15.70;8.77;;;6.50;99.90;;;;;;4122227;28;20095;-65
2021/10/04 01:14:12;;;;;;;14.33;7.83;;;6.50;99.90;;;;;;4123411;28;20110;-69
2021/10/04 01:16:14;;;;;;;15.73;8.57;;;6.50;99.90;;;;;;4123318;28;20478;-68
2021/10/04 01:18:16;;;;;;;15.10;8.33;;;6.50;99.90;;;;;;4122672;28;20538;-64
2021/10/04 01:20:22;;;;;;;13.67;8.47;;;6.50;99.90;;;;;;4123608;28;20030;-71
2021/10/04 01:22:24;;;;;;;14.93;8.17;;;6.50;99.90;;;;;;4122883;28;20038;-64
2021/10/04 01:24:25;;;;;;;15.70;8.33;;;6.50;99.90;;;;;;4123246;28;20499;-69
2021/10/04 01:26:26;;;;;;;16.07;8.80;;;6.50;99.90;;;;;;4123548;28;20505;-70
2021/10/04 01:28:28;;;;;;;15.17;9.03;;;6.50;99.90;;;;;;4123195;28;20034;-64
2021/10/04 01:30:32;;;;;;;13.77;7.77;;;6.50;99.90;;;;;;4123509;28;20089;-70
2021/10/04 01:32:33;;;;;;;15.87;8.83;;;6.40;99.90;;;;;;4123409;28;20089;-68
2021/10/04 01:34:34;;;;;;;16.80;8.07;;;6.40;99.90;;;;;;4123773;28;20141;-71
2021/10/04 01:36:36;;;;;;;16.40;8.87;;;6.40;99.90;;;;;;4122537;28;20061;-73
2021/10/04 01:38:37;;;;;;;17.10;8.90;;;6.40;99.90;;;;;;4123526;28;20114;-72
2021/10/04 01:40:43;;;;;;;18.03;8.87;;;6.30;99.90;;;;;;4122922;28;20050;-66
2021/10/04 01:42:45;;;;;;;13.20;8.13;;;6.30;99.90;;;;;;4123383;28;20105;-72
2021/10/04 01:44:46;;;;;;;14.90;7.50;;;6.20;99.90;;;;;;4123008;28;20380;-70
2021/10/04 01:46:47;;;;;;;14.90;7.97;;;6.20;99.90;;;;;;4123108;28;20034;-65
2021/10/04 01:48:48;;;;;;;12.03;7.67;;;6.20;99.90;;;;;;4123099;28;20479;-68
2021/10/04 01:50:50;;;;;;;12.93;8.20;;;6.10;99.90;;;;;;4123447;28;20027;-68
2021/10/04 01:52:51;;;;;;;14.57;8.83;;;6.10;99.90;;;;;;4123464;28;20483;-63
2021/10/04 01:54:52;;;;;;;14.03;8.30;;;6.10;99.90;;;;;;4123424;28;20030;-66
2021/10/04 01:56:53;;;;;;;18.83;9.13;;;6.10;99.90;;;;;;4126570;28;20147;-66
2021/10/04 01:58:54;;;;;;;16.83;8.43;;;6.10;99.90;;;;;;4126569;28;20100;-63
2021/10/04 02:00:59;;;;;;;13.63;7.53;;;6.10;99.90;;;;;;4126313;28;20038;-64
2021/10/04 02:03:01;;;;;;;13.40;7.57;;;6.10;99.90;;;;;;4126403;28;20442;-71
2021/10/04 02:05:02;;;;;;;16.43;8.40;;;6.00;99.90;;;;;;4126359;28;20042;-63
2021/10/04 02:07:04;;;;;;;13.57;8.27;;;6.00;99.90;;;;;;4125540;28;20109;-74
2021/10/04 02:09:05;;;;;;;15.33;8.77;;;6.00;99.90;;;;;;4126342;28;20917;-64
2021/10/04 02:11:06;;;;;;;13.27;8.70;;;6.00;99.90;;;;;;4126607;28;20030;-65
2021/10/04 02:13:09;;;;;;;14.23;8.17;;;6.00;99.90;;;;;;4126218;28;20042;-67
2021/10/04 02:15:11;;;;;;;15.60;7.53;;;6.00;99.90;;;;;;4124862;28;20080;-67
2021/10/04 02:17:12;;;;;;;15.33;7.63;;;6.00;99.90;;;;;;4126659;28;20782;-74
2021/10/04 02:19:13;;;;;;;17.30;8.63;;;6.00;99.90;;;;;;4126341;28;20327;-66
2021/10/04 02:21:14;;;;;;;13.47;7.10;;;6.10;99.90;;;;;;4125516;28;20368;-64
2021/10/04 02:23:15;;;;;;;13.03;7.67;;;6.00;99.90;;;;;;4126009;28;20030;-71
2021/10/04 02:25:18;;;;;;;14.47;7.80;;;6.00;99.90;;;;;;4125613;28;20038;-66
2021/10/04 02:27:19;;;;;;;14.60;8.73;;;6.00;99.90;;;;;;4125720;28;20917;-70
2021/10/04 02:29:20;;;;;;;13.07;8.10;;;6.10;99.90;;;;;;4125381;28;20426;-64
2021/10/04 02:31:21;;;;;;;14.80;8.30;;;6.00;99.90;;;;;;4125330;28;20026;-64
2021/10/04 02:33:22;;;;;;;12.10;7.63;;;6.00;99.90;;;;;;4125669;28;20437;-65
2021/10/04 02:35:24;;;;;;;16.67;9.00;;;6.00;99.90;;;;;;4125910;28;20077;-73
2021/10/04 02:37:25;;;;;;;14.20;8.03;;;5.90;99.90;;;;;;4125228;28;20054;-66
2021/10/04 02:39:26;;;;;;;13.13;7.80;;;5.90;99.90;;;;;;4125765;28;20125;-72
2021/10/04 02:41:27;;;;;;;14.60;7.77;;;6.00;99.90;;;;;;4125227;28;20105;-71
2021/10/04 02:43:28;;;;;;;14.20;7.40;;;5.90;99.90;;;;;;4125917;28;20038;-71
2021/10/04 02:45:29;;;;;;;19.50;8.50;;;5.90;99.90;;;;;;4125201;28;20767;-67
2021/10/04 02:47:31;;;;;;;14.03;8.07;;;5.90;99.90;;;;;;4125529;28;20101;-68
2021/10/04 02:49:32;;;;;;;17.73;8.77;;;5.90;99.90;;;;;;4125234;28;20093;-66
2021/10/04 02:51:33;;;;;;;14.57;8.43;;;5.90;99.90;;;;;;4125323;28;20264;-67
2021/10/04 02:53:34;;;;;;;21.47;8.73;;;5.90;99.90;;;;;;4125507;28;20566;-66
2021/10/04 02:55:35;;;;;;;12.77;8.10;;;5.80;99.90;;;;;;4124567;28;20541;-67
2021/10/04 02:57:36;;;;;;;13.00;8.47;;;5.80;99.90;;;;;;4125444;28;20045;-64
2021/10/04 02:59:38;;;;;;;18.67;9.20;;;5.70;99.90;;;;;;4125124;28;20280;-70
2021/10/04 03:01:39;;;;;;;26.20;12.00;;;5.60;99.90;;;;;;4125153;28;20275;-74
2021/10/04 03:03:41;;;;;;;21.03;10.37;;;5.50;99.90;;;;;;4125599;28;20268;-71
2021/10/04 03:05:42;;;;;;;17.33;10.40;;;5.40;99.90;;;;;;4125052;28;20272;-64
2021/10/04 03:07:43;;;;;;;17.13;8.37;;;5.40;99.90;;;;;;4124595;28;20034;-67
2021/10/04 03:09:44;;;;;;;18.80;8.53;;;5.40;99.90;;;;;;4125356;28;20284;-64
2021/10/04 03:11:46;;;;;;;14.53;8.50;;;5.40;99.90;;;;;;4124095;28;20279;-68
2021/10/04 03:13:47;;;;;;;16.13;8.40;;;5.40;99.90;;;;;;4125118;28;20314;-70
2021/10/04 03:15:48;;;;;;;14.93;7.83;;;5.30;99.90;;;;;;4124840;28;20272;-64
2021/10/04 03:17:49;;;;;;;12.57;7.90;;;5.30;99.90;;;;;;4125473;28;20299;-66
2021/10/04 03:19:51;;;;;;;14.30;8.30;;;5.30;99.90;;;;;;4124801;28;20272;-72
2021/10/04 03:21:52;;;;;;;14.93;8.23;;;5.30;99.90;;;;;;4124746;28;20268;-66
2021/10/04 03:23:53;;;;;;;17.23;9.43;;;5.30;99.90;;;;;;4124798;28;20257;-64
2021/10/04 03:25:56;;;;;;;16.57;9.10;;;5.30;99.90;;;;;;4124906;28;20326;-64
2021/10/04 03:27:57;;;;;;;17.73;9.00;;;5.30;99.90;;;;;;4124581;28;20338;-67
2021/10/04 03:29:58;;;;;;;16.77;9.27;;;5.30;99.90;;;;;;4124833;28;20735;-69
2021/10/04 03:31:59;;;;;;;15.50;8.73;;;5.30;99.90;;;;;;4124127;28;20339;-76
2021/10/04 03:34:01;;;;;;;18.50;8.80;;;5.30;99.90;;;;;;4125177;28;20841;-66
2021/10/04 03:36:03;;;;;;;18.00;8.33;;;5.40;99.90;;;;;;4124747;28;20276;-64
2021/10/04 03:38:04;;;;;;;23.70;9.37;;;5.40;99.90;;;;;;4124875;28;20272;-64
2021/10/04 03:40:07;;;;;;;13.67;8.63;;;5.40;99.90;;;;;;4122870;28;20346;-70
2021/10/04 03:42:08;;;;;;;16.23;9.43;;;5.40;99.90;;;;;;4124174;28;20403;-68
2021/10/04 03:44:09;;;;;;;27.67;9.97;;;5.30;99.90;;;;;;4124718;28;20085;-64
2021/10/04 03:46:10;;;;;;;15.00;9.33;;;5.30;99.90;;;;;;4108399;28;20757;-74
2021/10/04 03:48:12;;;;;;;19.37;10.07;;;5.30;99.90;;;;;;4112855;28;20268;-64
2021/10/04 03:50:14;;;;;;;17.80;9.53;;;5.20;99.90;;;;;;4124375;28;20330;-67
2021/10/04 03:52:16;;;;;;;17.43;9.27;;;5.20;99.90;;;;;;4124439;28;20311;-71
2021/10/04 03:54:17;;;;;;;19.03;9.80;;;5.10;99.90;;;;;;4123793;28;20275;-73
2021/10/04 03:56:18;;;;;;;14.20;9.30;;;5.10;99.90;;;;;;4123924;28;20637;-68
2021/10/04 03:58:20;;;;;;;18.73;9.77;;;5.10;99.90;;;;;;4124551;28;20268;-63
2021/10/04 04:00:23;;;;;;;16.37;9.47;;;5.10;99.90;;;;;;4123014;28;20284;-65
2021/10/04 04:02:24;;;;;;;17.20;9.67;;;5.10;99.90;;;;;;4123811;28;20854;-63
2021/10/04 04:04:25;;;;;;;16.73;9.40;;;5.00;99.90;;;;;;4124254;28;20288;-64
2021/10/04 04:06:27;;;;;;;13.63;8.57;;;5.00;99.90;;;;;;4123590;28;20688;-63
2021/10/04 04:08:29;;;;;;;14.87;9.03;;;5.10;99.90;;;;;;4123200;28;20334;-73
2021/10/04 04:10:31;;;;;;;15.87;8.83;;;5.10;99.90;;;;;;4123213;28;21165;-73
2021/10/04 04:12:32;;;;;;;16.13;9.40;;;5.10;99.90;;;;;;4123575;28;20330;-62
2021/10/04 04:14:34;;;;;;;17.00;8.83;;;5.10;99.90;;;;;;4123939;28;20765;-65
2021/10/04 04:16:35;;;;;;;13.50;8.23;;;5.10;99.90;;;;;;4108261;28;20682;-64
2021/10/04 04:18:36;;;;;;;17.90;9.10;;;5.10;99.90;;;;;;4106936;28;20344;-62
2021/10/04 04:20:37;;;;;;;24.07;9.43;;;5.20;99.90;;;;;;4107154;28;20316;-65
2021/10/04 04:22:40;;;;;;;15.77;8.00;;;5.20;99.90;;;;;;4107301;28;20383;-63
2021/10/04 04:24:42;;;;;;;17.33;8.73;;;5.10;99.90;;;;;;4110025;28;20744;-67
2021/10/04 04:26:45;;;;;;;15.63;8.47;;;5.20;99.90;;;;;;4123378;28;20323;-70
2021/10/04 04:28:46;;;;;;;14.87;8.40;;;5.20;99.90;;;;;;4123857;28;20287;-65
2021/10/04 04:30:47;;;;;;;15.47;8.70;;;5.20;99.90;;;;;;4123489;28;20327;-64
2021/10/04 04:32:48;;;;;;;12.37;7.60;;;5.20;99.90;;;;;;4123012;28;20373;-67
2021/10/04 04:34:49;;;;;;;14.37;7.53;;;5.10;99.90;;;;;;4123407;28;20335;-64
2021/10/04 04:36:51;;;;;;;14.70;8.27;;;5.20;99.90;;;;;;4122799;28;20862;-63
2021/10/04 04:38:52;;;;;;;18.70;8.80;;;5.20;99.90;;;;;;4123630;28;20284;-63
2021/10/04 04:40:53;;;;;;;14.20;7.37;;;5.20;99.90;;;;;;4123370;28;20684;-62
2021/10/04 04:42:54;;;;;;;15.33;7.53;;;5.20;99.90;;;;;;4123268;28;20280;-64
2021/10/04 04:44:55;;;;;;;12.93;7.17;;;5.20;99.90;;;;;;4124117;28;20276;-64
2021/10/04 04:46:57;;;;;;;16.27;7.87;;;5.30;99.90;;;;;;4123265;28;21142;-69
2021/10/04 04:48:58;;;;;;;14.87;7.30;;;5.50;99.90;;;;;;4122965;28;20654;-65
2021/10/04 04:50:59;;;;;;;15.17;7.73;;;5.80;99.90;;;;;;4121772;28;20854;-65
2021/10/04 04:53:02;;;;;;;15.57;8.63;;;6.10;99.90;;;;;;4109977;28;20347;-66
2021/10/04 04:55:05;;;;;;;19.20;8.37;;;6.30;99.90;;;;;;4116288;28;20740;-64
2021/10/04 04:57:07;;;;;;;24.13;10.63;;;6.60;99.90;;;;;;4126252;28;20108;-66
2021/10/04 04:59:08;;;;;;;20.57;9.77;;;6.90;99.90;;;;;;4133311;28;20080;-65
2021/10/04 05:01:09;;;;;;;15.50;9.03;;;7.20;99.90;;;;;;4128564;28;20100;-65
2021/10/04 05:03:10;;;;;;;18.60;10.00;;;7.40;99.90;;;;;;4127054;28;20543;-65
2021/10/04 05:05:14;;;;;;;22.93;8.40;;;7.70;99.90;;;;;;4130589;28;20030;-65
2021/10/04 05:07:15;;;;;;;18.50;8.97;;;8.00;99.90;;;;;;4124109;28;20081;-65
2021/10/04 05:09:16;;;;;;;13.90;7.97;;;8.30;99.90;;;;;;4121060;28;20108;-69
2021/10/04 05:11:17;;;;;;;16.20;8.93;;;8.50;99.90;;;;;;4121394;28;20475;-67
2021/10/04 05:13:18;;;;;;;18.97;8.90;;;8.80;99.90;;;;;;4120240;28;20097;-66
2021/10/04 05:15:20;;;;;;;16.87;8.57;;;9.10;99.90;;;;;;4122314;28;20026;-63
2021/10/04 05:17:21;;;;;;;11.30;7.83;;;9.40;99.90;;;;;;4122341;28;20816;-65
2021/10/04 05:19:22;;;;;;;14.67;8.50;;;9.80;99.90;;;;;;4122901;28;20109;-65
2021/10/04 05:21:23;;;;;;;14.83;7.67;;;10.30;99.90;;;;;;4122619;28;20057;-66
2021/10/04 05:23:24;;;;;;;17.13;7.83;;;10.80;99.90;;;;;;4123090;28;20506;-72
2021/10/04 05:25:25;;;;;;;14.23;7.60;;;11.30;99.90;;;;;;4122607;28;20104;-66
2021/10/04 05:27:26;;;;;;;14.37;7.50;;;11.70;99.90;;;;;;4123182;28;20042;-69
2021/10/04 05:29:27;;;;;;;16.07;7.27;;;11.70;99.90;;;;;;4122763;28;20479;-71
2021/10/04 05:31:29;;;;;;;20.43;6.73;;;11.70;99.90;;;;;;4122783;28;20482;-69
2021/10/04 05:33:30;;;;;;;13.80;7.40;;;11.50;99.90;;;;;;4122992;28;20097;-66
2021/10/04 05:35:31;;;;;;;11.43;6.63;;;11.70;99.90;;;;;;4123308;28;20093;-68
2021/10/04 05:37:32;;;;;;;10.57;7.53;;;12.00;99.90;;;;;;4122740;28;20911;-67
2021/10/04 05:39:33;;;;;;;11.53;6.97;;;12.30;99.90;;;;;;4122628;28;20038;-67
2021/10/04 05:41:34;;;;;;;9.50;6.37;;;12.50;99.90;;;;;;4122903;28;20030;-66
2021/10/04 05:43:35;;;;;;;10.63;6.10;;;12.80;99.90;;;;;;4122585;28;20096;-67
2021/10/04 05:45:37;;;;;;;12.57;6.27;;;13.00;99.90;;;;;;4122632;28;20096;-66
2021/10/04 05:47:39;;;;;;;14.90;5.80;;;13.20;99.90;;;;;;4122063;28;20054;-67
2021/10/04 05:49:40;;;;;;;8.47;5.10;;;13.20;99.90;;;;;;4122902;28;20147;-66
2021/10/04 05:51:41;;;;;;;13.38;5.53;;;13.40;99.90;;;;;;4122133;28;20120;-69
2021/10/04 05:53:43;;;;;;;11.45;5.00;;;13.90;99.90;;;;;;4122757;28;20761;-66
2021/10/04 05:55:47;;;;;;;12.25;5.00;;;14.20;99.90;;;;;;4122436;28;20093;-65
2021/10/04 05:57:48;;;;;;;12.38;5.30;;;14.60;99.90;;;;;;4122936;28;20331;-72
2021/10/04 05:59:49;;;;;;;14.05;5.95;;;15.00;99.90;;;;;;4122287;28;20435;-65
2021/10/04 06:01:50;;;;;;;17.05;6.63;;;15.40;99.90;;;;;;4122298;28;20034;-66
2021/10/04 06:03:51;;;;;;;12.00;5.45;;;15.60;99.90;;;;;;4122592;28;20475;-66
2021/10/04 06:05:53;;;;;;;10.70;5.05;;;15.40;99.90;;;;;;4123279;28;20086;-65
2021/10/04 06:07:54;;;;;;;9.60;5.68;;;15.20;99.90;;;;;;4120981;28;20081;-66
2021/10/04 06:09:55;;;;;;;14.63;6.22;;;15.20;99.90;;;;;;4122559;28;20034;-64
2021/10/04 06:11:56;;;;;;;10.52;5.72;;;15.50;99.60;;;;;;4122574;28;20164;-65
2021/10/04 06:13:57;;;;;;;12.38;5.47;;;15.60;98.70;;;;;;4122092;28;20126;-67
2021/10/04 06:15:58;;;;;;;9.63;5.18;;;15.70;98.60;;;;;;4122713;28;20369;-67
2021/10/04 06:18:00;;;;;;;9.95;5.03;;;15.60;98.30;;;;;;4121905;28;20038;-68
2021/10/04 06:20:01;;;;;;;10.20;5.82;;;15.90;98.00;;;;;;4122365;28;20100;-65
2021/10/04 06:22:02;;;;;;;10.57;5.18;;;16.10;97.50;;;;;;4121788;28;20034;-68
2021/10/04 06:24:04;;;;;;;11.45;4.82;;;16.30;96.90;;;;;;4122415;28;20475;-65
2021/10/04 06:26:05;;;;;;;14.50;5.60;;;16.20;96.70;;;;;;4121722;28;20030;-66
2021/10/04 06:28:06;;;;;;;12.18;5.50;;;16.30;96.40;;;;;;4122537;28;20033;-66
2021/10/04 06:30:08;;;;;;;12.18;5.88;;;16.40;96.20;;;;;;4121654;28;20034;-64
2021/10/04 06:32:10;;;;;;;9.15;4.88;;;16.60;96.00;;;;;;4121632;28;20067;-68
2021/10/04 06:34:11;;;;;;;10.50;5.25;;;16.50;95.50;;;;;;4122232;28;20046;-67
2021/10/04 06:36:12;;;;;;;9.77;5.28;;;16.00;95.80;;;;;;4122490;28;20046;-65
2021/10/04 06:38:13;;;;;;;9.57;4.72;;;16.00;95.80;;;;;;4122105;28;20574;-65
2021/10/04 06:40:16;;;;;;;10.88;6.03;;;16.20;95.80;;;;;;4121568;28;20050;-68
2021/10/04 06:42:17;;;;;;;8.13;5.43;;;16.20;95.60;;;;;;4124516;28;20112;-67
2021/10/04 06:44:18;;;;;;;11.10;5.30;;;16.30;95.50;;;;;;4125434;28;20030;-64
2021/10/04 06:46:20;;;;;;;16.33;5.38;;;16.30;95.50;;;;;;4125197;28;20026;-66
2021/10/04 06:48:21;;;;;;;9.50;6.05;;;16.30;95.70;;;;;;4125240;28;20467;-67
2021/10/04 06:50:22;;;;;;;14.82;6.28;;;16.10;95.40;;;;;;4125469;28;20030;-66
2021/10/04 06:52:23;;;;;;;15.32;6.55;;;16.00;95.40;;;;;;4124674;28;20442;-67
2021/10/04 06:54:24;;;;;;;14.13;6.40;;;16.00;95.60;;;;;;4125111;28;20656;-68
2021/10/04 06:56:26;;;;;;;15.57;7.55;;;16.20;95.60;;;;;;4124897;28;20030;-67
2021/10/04 06:58:27;;;;;;;14.63;6.85;;;16.50;95.50;;;;;;4125106;28;20553;-66
2021/10/04 07:00:28;;;;;;;13.50;6.63;;;16.60;95.40;;;;;;4124981;28;20042;-65
2021/10/04 07:02:29;;;;;;;16.10;8.70;;;16.40;95.30;;;;;;4125177;28;20042;-74
2021/10/04 07:04:30;;;;;;;32.95;9.50;;;16.30;95.50;;;;;;4125153;28;20046;-67
2021/10/04 07:06:31;;;;;;;20.30;9.10;;;15.70;96.00;;;;;;4124826;28;20038;-64
2021/10/04 07:08:33;;;;;;;23.83;8.30;;;15.70;96.20;;;;;;4124651;28;20046;-71
2021/10/04 07:10:34;;;;;;;24.83;8.32;;;15.80;96.20;;;;;;4124060;28;20096;-68
2021/10/04 07:12:35;;;;;;;22.30;8.90;;;16.00;96.20;;;;;;4124633;28;20048;-74
2021/10/04 07:14:36;;;;;;;26.40;9.82;;;16.50;95.80;;;;;;4124687;28;20042;-66
2021/10/04 07:16:37;;;;;;;21.50;8.93;;;16.20;95.50;;;;;;4124645;28;20084;-69
2021/10/04 07:18:40;;;;;;;16.80;8.85;;;15.50;96.00;;;;;;4124728;28;20050;-70
2021/10/04 07:20:42;;;;;;;16.63;7.68;;;15.00;96.50;;;;;;4124755;28;20030;-65
2021/10/04 07:22:43;;;;;;;19.75;9.35;;;14.60;97.20;;;;;;4124339;28;20034;-67
2021/10/04 07:24:44;;;;;;;18.30;9.18;;;14.40;97.70;;;;;;4124487;28;20038;-73
2021/10/04 07:26:47;;;;;;;21.75;9.25;;;14.40;97.90;;;;;;4124217;28;20081;-65
2021/10/04 07:28:52;;;;;;;16.97;9.30;;;14.40;97.90;;;;;;4124731;28;20104;-67
2021/10/04 07:30:53;;;;;;;18.73;9.30;;;14.40;97.90;;;;;;4124361;28;20037;-67
2021/10/04 07:32:55;;;;;;;16.93;9.10;;;14.50;98.10;;;;;;4124461;28;20034;-66
2021/10/04 07:34:56;;;;;;;16.70;8.80;;;14.50;98.00;;;;;;4124981;28;20022;-65
2021/10/04 07:36:58;;;;;;;20.77;9.03;;;14.20;98.30;;;;;;4124376;28;20034;-66
2021/10/04 07:39:01;;;;;;;19.37;9.33;;;14.20;98.60;;;;;;4122929;28;20047;-66
2021/10/04 07:41:04;;;;;;;13.27;7.70;;;14.00;98.80;;;;;;4124196;28;20494;-66
2021/10/04 07:43:06;;;;;;;16.47;8.47;;;13.90;99.20;;;;;;4124502;28;20026;-68
2021/10/04 07:45:07;;;;;;;16.57;9.07;;;14.00;99.10;;;;;;4123971;28;20030;-65
2021/10/04 07:47:08;;;;;;;12.83;8.00;;;14.20;99.10;;;;;;4124279;28;20042;-65
2021/10/04 07:49:11;;;;;;;12.10;8.53;;;14.10;99.30;;;;;;4124454;28;20046;-66
2021/10/04 07:51:15;;;;;;;12.10;8.20;;;13.90;99.70;;;;;;4123948;28;20043;-65
2021/10/04 07:53:17;;;;;;;13.27;7.77;;;13.60;99.90;;;;;;4122557;28;20479;-67
2021/10/04 07:55:19;;;;;;;16.13;9.33;;;13.60;99.90;;;;;;4123733;28;20081;-68
2021/10/04 07:57:20;;;;;;;18.07;9.57;;;13.50;99.90;;;;;;4122237;28;20124;-68
2021/10/04 07:59:21;;;;;;;18.13;9.30;;;13.40;99.90;;;;;;4123904;28;20105;-66
2021/10/04 08:01:22;;;;;;;18.77;9.43;;;13.50;99.90;;;;;;4123996;28;20026;-72
2021/10/04 08:03:23;;;;;;;15.57;8.97;;;13.80;99.90;;;;;;4124097;28;20042;-67
2021/10/04 08:05:25;;;;;;;15.97;9.73;;;13.90;99.90;;;;;;4124195;28;20034;-76
2021/10/04 08:07:26;;;;;;;16.63;9.37;;;13.70;99.90;;;;;;4123518;28;20034;-66
2021/10/04 08:09:27;;;;;;;16.07;8.70;;;13.60;99.90;;;;;;4123929;28;20080;-65
2021/10/04 08:11:28;;;;;;;16.33;8.17;;;13.60;99.90;;;;;;4123913;28;20046;-65
2021/10/04 08:13:29;;;;;;;17.40;9.37;;;13.80;99.90;;;;;;4123744;28;20379;-68
2021/10/04 08:15:32;;;;;;;17.57;9.83;;;13.90;99.90;;;;;;4123609;28;20477;-67
2021/10/04 08:17:34;;;;;;;21.27;9.53;;;13.80;99.90;;;;;;4123933;28;20076;-66
2021/10/04 08:19:35;;;;;;;16.07;8.60;;;13.70;99.90;;;;;;4123054;28;20092;-65
2021/10/04 08:21:36;;;;;;;19.73;8.80;;;13.90;99.90;;;;;;4123887;28;20088;-67
2021/10/04 08:23:38;;;;;;;19.23;8.97;;;14.20;99.90;;;;;;4123786;28;20034;-71
2021/10/04 08:25:39;;;;;;;14.97;9.10;;;14.40;99.90;;;;;;4123143;28;20463;-67
2021/10/04 08:27:41;;;;;;;13.67;8.90;;;14.40;99.90;;;;;;4122775;28;20100;-68
2021/10/04 08:29:42;;;;;;;20.33;9.73;;;14.60;99.90;;;;;;4123532;28;20026;-66
2021/10/04 08:31:43;;;;;;;14.23;8.50;;;14.40;99.90;;;;;;4123059;28;20089;-70
2021/10/04 08:33:45;;;;;;;14.40;8.83;;;14.50;99.90;;;;;;4123894;28;20038;-68
2021/10/04 08:35:46;;;;;;;15.33;8.57;;;14.80;99.90;;;;;;4123296;28;20038;-66
2021/10/04 08:37:48;;;;;;;12.03;8.97;;;14.90;99.90;;;;;;4122948;28;20042;-71
2021/10/04 08:39:49;;;;;;;16.03;8.77;;;14.90;99.90;;;;;;4122859;28;20112;-66
2021/10/04 08:41:52;;;;;;;15.20;8.20;;;15.00;99.90;;;;;;4123251;28;20085;-69
2021/10/04 08:43:55;;;;;;;17.73;9.23;;;15.10;99.90;;;;;;4123233;28;20050;-68
2021/10/04 08:45:59;;;;;;;12.37;7.80;;;15.20;99.90;;;;;;4123467;28;20042;-72
2021/10/04 08:48:02;;;;;;;17.57;9.03;;;15.30;99.90;;;;;;4123650;28;20640;-68
2021/10/04 08:50:06;;;;;;;17.23;8.63;;;15.40;99.90;;;;;;4123241;28;20042;-68
2021/10/04 08:52:07;;;;;;;14.27;7.67;;;15.40;99.90;;;;;;4122879;28;20077;-66
2021/10/04 08:54:09;;;;;;;11.27;7.27;;;15.40;99.90;;;;;;4123058;28;20081;-70
2021/10/04 08:56:10;;;;;;;17.20;7.72;;;15.30;99.90;;;;;;4123137;28;20085;-69
2021/10/04 08:58:12;;;;;;;13.02;7.13;;;15.50;99.90;;;;;;4122838;28;20100;-66
2021/10/04 09:00:13;;;;;;;8.98;5.93;;;15.70;99.90;;;;;;4123489;28;20628;-69
2021/10/04 09:02:22;;;;;;;7.40;5.60;;;15.90;99.90;;;;;;4122628;28;20092;-71
2021/10/04 09:04:23;;;;;;;7.20;5.25;;;15.80;99.90;;;;;;4123003;28;20123;-70
2021/10/04 09:06:36;;;;;;;11.48;5.70;;;15.80;99.90;;;;;;4122902;28;20115;-70
2021/10/04 09:08:50;;;;;;;16.58;6.53;;;16.00;99.90;;;;;;4123107;28;20088;-65
2021/10/04 09:10:55;;;;;;;11.57;4.78;;;16.20;99.40;;;;;;4122735;28;20467;-68
2021/10/04 09:13:00;;;;;;;10.95;4.38;;;16.20;99.40;;;;;;4123324;28;20035;-65
2021/10/04 09:15:18;;;;;;;7.80;4.68;;;16.20;99.30;;;;;;4123066;28;20034;-69
2021/10/04 09:17:19;;;;;;;9.48;4.35;;;16.30;98.60;;;;;;4122676;28;20806;-68
2021/10/04 09:19:35;;;;;;;10.18;4.80;;;16.40;99.00;;;;;;4122149;28;20031;-66
2021/10/04 09:21:36;;;;;;;7.13;4.22;;;16.50;98.50;;;;;;4122466;28;20109;-69
2021/10/04 09:23:44;;;;;;;7.10;4.10;;;16.50;98.70;;;;;;4122901;28;20164;-66
2021/10/04 09:25:45;;;;;;;7.68;4.50;;;16.40;98.40;;;;;;4122787;28;20085;-65
2021/10/04 09:27:47;;;;;;;7.63;4.78;;;16.40;98.60;;;;;;4121376;28;20101;-67
2021/10/04 09:29:49;;;;;;;7.57;4.75;;;16.30;98.50;;;;;;4122716;28;20102;-64
2021/10/04 09:31:52;;;;;;;7.03;3.90;;;16.30;98.50;;;;;;4122450;28;20534;-65
2021/10/04 09:34:10;;;;;;;9.80;4.70;;;16.50;98.30;;;;;;4122710;28;20111;-65
2021/10/04 09:36:18;;;;;;;11.43;4.88;;;16.60;98.10;;;;;;4122636;28;20030;-65
2021/10/04 09:38:21;;;;;;;8.80;5.15;;;16.60;97.80;;;;;;4121886;28;20569;-66
2021/10/04 09:40:35;;;;;;;10.00;4.72;;;16.60;97.90;;;;;;4121904;28;20047;-65
2021/10/04 09:42:39;;;;;;;7.22;4.43;;;16.60;97.70;;;;;;4122362;28;20038;-69
2021/10/04 09:44:51;;;;;;;7.57;3.65;;;16.80;97.70;;;;;;4122020;28;20916;-68
2021/10/04 09:47:37;;;;;;;6.70;4.50;;;16.70;97.10;;;;;;4122452;28;20093;-68
2021/10/04 09:49:52;;;;;;;5.68;3.80;;;16.60;97.40;;;;;;4112881;28;20030;-70
2021/10/04 09:51:54;;;;;;;5.93;3.55;;;16.70;97.30;;;;;;4122962;28;20085;-68
2021/10/04 09:54:08;;;;;;;6.60;4.28;;;16.70;97.20;;;;;;4122650;28;20038;-67
2021/10/04 09:56:25;;;;;;;7.68;4.47;;;16.80;97.00;;;;;;4122281;28;20331;-66
2021/10/04 09:58:31;;;;;;;6.30;3.85;;;16.90;96.90;;;;;;4122025;28;20034;-67
2021/10/04 10:00:35;;;;;;;9.90;4.15;;;17.10;96.50;;;;;;4121736;28;20101;-64
2021/10/04 10:02:37;;;;;;;8.48;3.55;;;17.10;96.40;;;;;;4122186;28;20022;-66
2021/10/04 10:04:39;;;;;;;8.25;4.35;;;17.20;96.50;;;;;;4122344;28;20502;-67
2021/10/04 10:06:41;;;;;;;8.00;4.03;;;17.20;96.30;;;;;;4121964;28;20479;-69
2021/10/04 10:08:42;;;;;;;7.43;3.65;;;17.30;96.30;;;;;;4122017;28;20050;-66
2021/10/04 10:10:44;;;;;;;6.03;3.70;;;17.20;96.20;;;;;;4122277;28;20038;-65
2021/10/04 10:12:46;;;;;;;8.68;3.92;;;17.20;96.10;;;;;;4121754;28;20085;-66
2021/10/04 10:14:50;;;;;;;8.35;4.18;;;17.20;96.00;;;;;;4121842;28;20357;-66
2021/10/04 10:16:54;;;;;;;9.02;4.45;;;17.20;96.00;;;;;;4123953;28;20786;-66
2021/10/04 10:19:02;;;;;;;5.68;3.63;;;17.20;96.00;;;;;;4125066;28;20108;-66
2021/10/04 10:21:06;;;;;;;8.20;4.20;;;17.10;95.80;;;;;;4125142;28;20510;-70
2021/10/04 10:23:08;;;;;;;9.68;4.03;;;17.10;95.90;;;;;;4123195;28;20394;-65
2021/10/04 10:25:26;;;;;;;10.02;4.22;;;17.10;95.70;;;;;;4125092;28;20034;-68
2021/10/04 10:27:41;;;;;;;8.52;3.95;;;17.20;95.70;;;;;;4124692;28;20081;-66
2021/10/04 10:29:43;;;;;;;7.63;4.32;;;17.20;95.40;;;;;;4125382;28;20080;-66
2021/10/04 10:31:56;;;;;;;12.65;4.93;;;17.20;95.60;;;;;;4125250;28;20038;-67
2021/10/04 10:33:57;;;;;;;8.70;4.68;;;17.30;95.50;;;;;;4123633;28;20487;-68